createdAt,value
2018-11-22T00:00:54.556Z,99.14
2018-11-22T00:04:03.594Z,98.93
2018-11-22T00:06:53.620Z,99.05
2018-11-22T00:09:42.827Z,99.25
2018-11-22T00:12:34.088Z,99.46
2018-11-22T00:15:24.312Z,99.53
2018-11-22T00:18:14.282Z,99.69
2018-11-22T00:21:03.435Z,99.78
2018-11-22T00:23:52.605Z,99.92
2018-11-22T00:26:41.717Z,100.00
2018-11-22T00:29:31.220Z,99.84
2018-11-22T00:32:20.458Z,99.68
2018-11-22T00:35:11.380Z,99.74
2018-11-22T00:38:00.576Z,99.62
2018-11-22T00:40:49.666Z,99.63
2018-11-22T00:43:39.806Z,99.31
2018-11-22T00:46:29.882Z,99.31
2018-11-22T00:54:39.723Z,98.99
2018-11-22T00:57:29.161Z,99.17
2018-11-22T01:00:29.322Z,99.61
2018-11-22T01:03:18.710Z,100.00
2018-11-22T01:06:00.744Z,100.00
2018-11-22T01:08:50.172Z,100.00
2018-11-22T01:11:32.372Z,100.00
2018-11-22T01:14:21.804Z,100.00
2018-11-22T01:17:04.151Z,100.00
2018-11-22T01:19:53.230Z,100.00
2018-11-22T01:22:35.331Z,100.00
2018-11-22T01:25:24.784Z,100.00
2018-11-22T01:28:11.629Z,100.00
2018-11-22T01:31:00.727Z,100.00
2018-11-22T01:33:42.647Z,100.00
2018-11-22T01:36:31.711Z,100.00
2018-11-22T01:39:13.670Z,100.00
2018-11-22T01:42:02.799Z,100.00
2018-11-22T01:44:45.135Z,100.00
2018-11-22T01:47:34.181Z,100.00
2018-11-22T01:50:23.236Z,100.00
2018-11-22T01:53:05.615Z,100.00
2018-11-22T01:55:54.801Z,100.00
2018-11-22T01:58:43.915Z,100.00
2018-11-22T02:01:33.126Z,100.00
2018-11-22T02:04:22.223Z,100.00
2018-11-22T02:07:11.519Z,100.00
2018-11-22T02:10:09.244Z,100.00
2018-11-22T02:12:58.431Z,100.00
2018-11-22T02:15:47.433Z,100.00
2018-11-22T02:18:30.023Z,100.00
2018-11-22T02:21:19.119Z,100.00
2018-11-22T02:24:08.299Z,100.00
2018-11-22T02:26:57.457Z,100.00
2018-11-22T02:29:46.551Z,100.00
2018-11-22T02:32:35.690Z,100.00
2018-11-22T02:35:25.220Z,100.00
2018-11-22T02:38:14.426Z,100.00
2018-11-22T02:41:03.595Z,100.00
2018-11-22T02:43:52.706Z,99.67
2018-11-22T02:46:42.039Z,99.73
2018-11-22T02:49:31.547Z,99.90
2018-11-22T02:52:23.485Z,99.82
2018-11-22T02:55:13.469Z,99.74
2018-11-22T02:57:55.498Z,98.91
2018-11-22T03:03:33.727Z,99.23
2018-11-22T03:06:22.776Z,99.60
2018-11-22T03:09:07.748Z,99.78
2018-11-22T03:11:56.808Z,100.00
2018-11-22T03:14:39.318Z,100.00
2018-11-22T03:17:28.396Z,100.00
2018-11-22T03:20:11.655Z,100.00
2018-11-22T03:23:00.742Z,100.00
2018-11-22T03:25:42.866Z,100.00
2018-11-22T03:28:31.957Z,100.00
2018-11-22T03:31:13.775Z,100.00
2018-11-22T03:34:02.804Z,100.00
2018-11-22T03:36:45.178Z,100.00
2018-11-22T03:39:34.240Z,100.00
2018-11-22T03:42:16.685Z,100.00
2018-11-22T03:45:06.299Z,100.00
2018-11-22T03:47:48.581Z,100.00
2018-11-22T03:50:37.749Z,100.00
2018-11-22T03:53:19.466Z,100.00
2018-11-22T03:56:08.954Z,100.00
2018-11-22T03:58:51.410Z,100.00
2018-11-22T04:01:40.487Z,100.00
2018-11-22T04:04:22.520Z,100.00
2018-11-22T04:07:11.585Z,100.00
2018-11-22T04:10:00.680Z,100.00
2018-11-22T04:12:42.713Z,100.00
2018-11-22T04:15:32.043Z,100.00
2018-11-22T04:18:21.133Z,100.00
2018-11-22T04:21:10.202Z,100.00
2018-11-22T04:23:52.364Z,100.00
2018-11-22T04:26:41.938Z,100.00
2018-11-22T04:29:27.682Z,100.00
2018-11-22T04:32:16.817Z,100.00
2018-11-22T04:34:58.269Z,100.00
2018-11-22T04:37:47.327Z,100.00
2018-11-22T04:40:30.344Z,100.00
2018-11-22T04:43:19.421Z,100.00
2018-11-22T04:46:02.697Z,100.00
2018-11-22T04:48:51.821Z,100.00
2018-11-22T04:51:38.059Z,100.00
2018-11-22T04:54:27.161Z,100.00
2018-11-22T04:57:10.743Z,100.00
2018-11-22T04:59:59.953Z,100.00
2018-11-22T05:02:42.982Z,100.00
2018-11-22T05:05:32.189Z,100.00
2018-11-22T05:08:21.397Z,100.00
2018-11-22T05:14:00.118Z,100.00
2018-11-22T05:16:49.613Z,100.00
2018-11-22T05:19:35.957Z,100.00
2018-11-22T05:22:25.362Z,100.00
2018-11-22T05:25:12.023Z,100.00
2018-11-22T05:27:53.840Z,100.00
2018-11-22T05:30:42.891Z,100.00
2018-11-22T05:33:24.531Z,100.00
2018-11-22T05:36:13.598Z,100.00
2018-11-22T05:38:55.418Z,100.00
2018-11-22T05:41:44.799Z,100.00
2018-11-22T05:44:26.627Z,100.00
2018-11-22T05:47:15.753Z,100.00
2018-11-22T05:49:58.065Z,100.00
2018-11-22T05:52:47.695Z,100.00
2018-11-22T05:55:31.657Z,100.00
2018-11-22T05:58:20.743Z,100.00
2018-11-22T06:01:03.153Z,100.00
2018-11-22T06:03:52.221Z,100.00
2018-11-22T06:06:36.279Z,100.00
2018-11-22T06:09:27.877Z,100.00
2018-11-22T06:12:10.579Z,100.00
2018-11-22T06:14:59.673Z,100.00
2018-11-22T06:17:43.671Z,100.00
2018-11-22T06:20:52.083Z,100.00
2018-11-22T06:23:36.285Z,100.00
2018-11-22T06:26:26.219Z,100.00
2018-11-22T06:29:08.023Z,100.00
2018-11-22T06:31:57.169Z,100.00
2018-11-22T06:34:38.797Z,100.00
2018-11-22T06:37:27.878Z,100.00
2018-11-22T06:40:10.725Z,100.00
2018-11-22T06:43:00.453Z,100.00
2018-11-22T06:45:42.594Z,100.00
2018-11-22T06:48:31.618Z,100.00
2018-11-22T06:51:13.383Z,100.00
2018-11-22T06:54:02.432Z,100.00
2018-11-22T06:56:44.485Z,100.00
2018-11-22T06:59:33.608Z,100.00
2018-11-22T07:02:15.431Z,100.00
2018-11-22T07:05:05.283Z,100.00
2018-11-22T07:07:47.457Z,100.00
2018-11-22T07:10:36.511Z,100.00
2018-11-22T07:13:18.596Z,100.00
2018-11-22T07:16:07.665Z,100.00
2018-11-22T07:18:49.953Z,100.00
2018-11-22T07:21:39.017Z,100.00
2018-11-22T07:27:38.352Z,100.00
2018-11-22T07:30:20.619Z,100.00
2018-11-22T07:33:10.767Z,100.00
2018-11-22T07:35:59.896Z,100.00
2018-11-22T07:38:48.986Z,100.00
2018-11-22T07:41:38.872Z,100.00
2018-11-22T07:44:22.418Z,100.00
2018-11-22T07:47:12.115Z,100.00
2018-11-22T07:56:00.079Z,100.00
2018-11-22T07:58:41.913Z,100.00
2018-11-22T08:01:31.150Z,99.54
2018-11-22T08:04:20.305Z,99.59
2018-11-22T08:07:09.555Z,98.64
2018-11-22T08:09:58.586Z,97.08
2018-11-22T08:12:48.470Z,97.26
2018-11-22T08:15:38.973Z,97.74
2018-11-22T08:18:08.729Z,98.18
2018-11-22T08:21:04.551Z,97.59
2018-11-22T08:23:40.207Z,97.17
2018-11-22T08:26:29.318Z,96.52
2018-11-22T08:29:11.323Z,94.60
2018-11-22T08:32:00.367Z,94.64
2018-11-22T08:34:42.726Z,95.95
2018-11-22T08:37:31.788Z,96.90
2018-11-22T08:40:39.407Z,97.43
2018-11-22T08:43:28.442Z,95.75
2018-11-22T08:46:10.233Z,95.77
2018-11-22T08:48:59.324Z,96.24
2018-11-22T08:51:41.136Z,95.38
2018-11-22T08:54:30.206Z,93.94
2018-11-22T08:57:11.802Z,94.14
2018-11-22T08:59:41.513Z,94.11
2018-11-22T09:02:30.532Z,94.78
2018-11-22T09:05:13.660Z,94.95
2018-11-22T09:08:02.765Z,93.81
2018-11-22T09:10:51.877Z,94.03
2018-11-22T09:13:40.914Z,94.70
2018-11-22T09:16:23.143Z,95.68
2018-11-22T09:19:12.197Z,95.74
2018-11-22T09:24:53.464Z,97.62
2018-11-22T09:27:43.160Z,98.09
2018-11-22T09:30:33.708Z,98.28
2018-11-22T09:33:17.158Z,98.19
2018-11-22T09:38:53.309Z,98.34
2018-11-22T09:41:40.039Z,97.57
2018-11-22T09:44:22.470Z,97.23
2018-11-22T09:47:11.520Z,96.70
2018-11-22T09:50:00.632Z,96.54
2018-11-22T09:52:50.529Z,96.30
2018-11-22T09:55:39.642Z,95.86
2018-11-22T09:58:28.737Z,96.11
2018-11-22T10:01:17.766Z,95.56
2018-11-22T10:04:06.968Z,95.63
2018-11-22T10:06:56.013Z,96.53
2018-11-22T10:09:38.248Z,97.63
2018-11-22T10:12:27.279Z,98.55
2018-11-22T10:15:17.926Z,98.44
2018-11-22T10:18:07.000Z,98.28
2018-11-22T10:20:49.288Z,98.31
2018-11-22T10:23:38.306Z,98.25
2018-11-22T10:26:20.050Z,98.01
2018-11-22T10:29:09.154Z,97.44
2018-11-22T10:31:51.413Z,96.77
2018-11-22T10:34:21.124Z,96.69
2018-11-22T10:37:10.199Z,94.54
2018-11-22T10:39:51.837Z,93.56
2018-11-22T10:42:42.025Z,92.35
2018-11-22T10:45:32.756Z,92.65
2018-11-22T10:48:21.944Z,91.94
2018-11-22T10:51:11.042Z,92.00
2018-11-22T10:54:00.072Z,91.59
2018-11-22T10:56:49.126Z,89.75
2018-11-22T10:59:30.836Z,90.91
2018-11-22T11:02:38.768Z,91.29
2018-11-22T11:05:39.618Z,90.49
2018-11-22T11:08:29.752Z,90.66
2018-11-22T11:11:11.718Z,90.66
2018-11-22T11:14:19.695Z,90.78
2018-11-22T11:17:01.567Z,92.00
2018-11-22T11:19:50.621Z,92.51
2018-11-22T11:22:33.354Z,93.42
2018-11-22T11:25:22.404Z,93.78
2018-11-22T11:28:04.074Z,93.74
2018-11-22T11:30:53.149Z,94.13
2018-11-22T11:33:35.381Z,94.15
2018-11-22T11:36:24.371Z,94.39
2018-11-22T11:39:07.281Z,94.75
2018-11-22T11:41:56.328Z,95.54
2018-11-22T11:44:38.847Z,96.13
2018-11-22T11:47:27.917Z,96.07
2018-11-22T11:53:10.233Z,96.39
2018-11-22T11:55:52.533Z,95.54
2018-11-22T11:58:41.737Z,94.25
2018-11-22T12:01:30.863Z,92.77
2018-11-22T12:04:19.989Z,91.34
2018-11-22T12:07:09.111Z,92.27
2018-11-22T12:09:58.216Z,93.70
2018-11-22T12:12:47.741Z,94.57
2018-11-22T12:15:36.855Z,94.83
2018-11-22T12:18:26.016Z,94.43
2018-11-22T12:21:15.137Z,93.81
2018-11-22T12:24:04.290Z,93.74
2018-11-22T12:26:53.423Z,92.83
2018-11-22T12:29:23.224Z,91.94
2018-11-22T12:32:13.101Z,91.12
2018-11-22T12:35:06.625Z,89.83
2018-11-22T12:38:15.694Z,89.91
2018-11-22T12:41:04.784Z,89.47
2018-11-22T12:43:53.989Z,89.49
2018-11-22T12:46:43.161Z,91.64
2018-11-22T12:49:32.336Z,91.73
2018-11-22T12:52:21.480Z,91.87
2018-11-22T12:55:11.371Z,91.23
2018-11-22T12:58:00.608Z,91.63
2018-11-22T13:00:49.751Z,91.63
2018-11-22T13:03:38.806Z,90.87
2018-11-22T13:06:28.030Z,90.76
2018-11-22T13:09:17.830Z,90.36
2018-11-22T13:12:06.904Z,89.73
2018-11-22T13:14:49.496Z,90.67
2018-11-22T13:17:38.810Z,90.75
2018-11-22T13:20:27.961Z,91.23
2018-11-22T13:23:17.074Z,90.82
2018-11-22T13:26:06.193Z,90.34
2018-11-22T13:28:55.487Z,89.30
2018-11-22T13:31:44.895Z,88.92
2018-11-22T13:34:34.403Z,88.63
2018-11-22T13:37:23.422Z,88.05
2018-11-22T13:40:13.265Z,87.72
2018-11-22T13:43:02.276Z,87.94
2018-11-22T13:45:44.051Z,87.56
2018-11-22T13:48:33.193Z,86.79
2018-11-22T13:51:15.045Z,87.18
2018-11-22T13:54:04.132Z,87.02
2018-11-22T13:56:46.131Z,86.71
2018-11-22T13:59:35.230Z,86.03
2018-11-22T14:02:17.361Z,86.41
2018-11-22T14:05:11.513Z,86.27
2018-11-22T14:07:48.713Z,86.81
2018-11-22T14:10:37.793Z,87.00
2018-11-22T14:13:19.897Z,87.06
2018-11-22T14:16:09.147Z,87.45
2018-11-22T14:18:58.287Z,87.65
2018-11-22T14:21:47.458Z,87.64
2018-11-22T14:24:36.595Z,87.56
2018-11-22T14:27:25.725Z,87.72
2018-11-22T14:30:33.777Z,87.64
2018-11-22T14:33:22.797Z,87.70
2018-11-22T14:36:11.815Z,87.62
2018-11-22T14:39:00.855Z,87.89
2018-11-22T14:41:43.465Z,88.19
2018-11-22T14:44:32.513Z,88.30
2018-11-22T14:47:14.581Z,88.52
2018-11-22T14:50:04.607Z,88.77
2018-11-22T14:52:47.966Z,88.90
2018-11-22T14:55:37.104Z,89.01
2018-11-22T14:58:19.106Z,90.19
2018-11-22T15:01:08.130Z,90.43
2018-11-22T15:03:49.991Z,91.68
2018-11-22T15:06:39.001Z,92.08
2018-11-22T15:09:21.359Z,93.15
2018-11-22T15:12:10.424Z,93.62
2018-11-22T15:14:52.116Z,93.75
2018-11-22T15:17:41.523Z,93.62
2018-11-22T15:20:24.297Z,93.97
2018-11-22T15:23:13.317Z,93.74
2018-11-22T15:25:55.227Z,93.69
2018-11-22T15:28:44.277Z,94.22
2018-11-22T15:31:33.328Z,94.28
2018-11-22T15:34:15.473Z,94.21
2018-11-22T15:37:04.576Z,94.20
2018-11-22T15:39:53.718Z,94.28
2018-11-22T15:42:43.380Z,94.15
2018-11-22T15:45:34.943Z,94.09
2018-11-22T15:48:22.082Z,94.27
2018-11-22T15:51:11.165Z,94.61
2018-11-22T15:54:00.262Z,94.60
2018-11-22T15:56:49.438Z,94.40
2018-11-22T15:59:38.708Z,94.58
2018-11-22T16:02:28.281Z,94.26
2018-11-22T16:05:17.928Z,94.17
2018-11-22T16:08:07.124Z,94.30
2018-11-22T16:10:56.263Z,94.24
2018-11-22T16:13:45.390Z,93.56
2018-11-22T16:16:34.551Z,93.53
2018-11-22T16:19:23.769Z,94.03
2018-11-22T16:22:12.876Z,93.89
2018-11-22T16:25:01.899Z,93.80
2018-11-22T16:27:51.006Z,94.44
2018-11-22T16:30:40.768Z,94.37
2018-11-22T16:33:22.530Z,94.18
2018-11-22T16:36:11.577Z,94.46
2018-11-22T16:38:53.455Z,94.54
2018-11-22T16:41:42.522Z,94.99
2018-11-22T16:44:24.417Z,94.95
2018-11-22T16:47:13.503Z,95.56
2018-11-22T16:49:55.906Z,94.90
2018-11-22T16:52:45.012Z,95.21
2018-11-22T16:58:37.096Z,95.29
2018-11-22T17:01:19.078Z,95.21
2018-11-22T17:04:08.189Z,95.70
2018-11-22T17:06:57.326Z,95.78
2018-11-22T17:09:46.425Z,95.73
2018-11-22T17:12:35.615Z,95.99
2018-11-22T17:15:26.293Z,95.95
2018-11-22T17:18:15.431Z,95.72
2018-11-22T17:21:04.542Z,94.98
2018-11-22T17:23:53.593Z,95.03
2018-11-22T17:26:35.793Z,94.99
2018-11-22T17:29:24.945Z,94.96
2018-11-22T17:32:14.027Z,94.78
2018-11-22T17:35:03.107Z,94.74
2018-11-22T17:37:52.757Z,94.95
2018-11-22T17:40:36.642Z,95.71
2018-11-22T17:43:25.688Z,96.17
2018-11-22T17:46:07.204Z,96.09
2018-11-22T17:51:58.405Z,96.34
2018-11-22T17:54:47.607Z,96.11
2018-11-22T17:57:36.671Z,95.69
2018-11-22T18:00:38.317Z,95.35
2018-11-22T18:03:27.425Z,95.32
2018-11-22T18:06:16.627Z,95.63
2018-11-22T18:09:26.261Z,96.02
2018-11-22T18:12:15.447Z,95.99
2018-11-22T18:15:04.642Z,95.58
2018-11-22T18:17:54.427Z,95.92
2018-11-22T18:20:43.559Z,96.01
2018-11-22T18:23:32.925Z,95.95
2018-11-22T18:28:53.717Z,95.33
2018-11-22T18:34:31.936Z,95.54
2018-11-22T18:37:14.445Z,95.98
2018-11-22T18:40:03.596Z,95.64
2018-11-22T18:42:53.677Z,95.97
2018-11-22T18:45:37.899Z,95.88
2018-11-22T18:48:21.142Z,95.83
2018-11-22T18:51:10.258Z,95.97
2018-11-22T18:53:59.398Z,95.90
2018-11-22T18:56:48.579Z,96.11
2018-11-22T18:59:38.118Z,95.99
2018-11-22T19:02:27.974Z,95.88
2018-11-22T19:05:17.722Z,96.19
2018-11-22T19:08:06.947Z,96.36
2018-11-22T19:10:57.364Z,96.69
2018-11-22T19:13:47.116Z,96.51
2018-11-22T19:16:39.256Z,96.43
2018-11-22T19:19:30.069Z,96.52
2018-11-22T19:22:20.118Z,96.84
2018-11-22T19:25:10.008Z,96.80
2018-11-22T19:28:00.283Z,96.38
2018-11-22T19:30:49.946Z,96.89
2018-11-22T19:33:40.040Z,96.84
2018-11-22T19:36:29.202Z,97.29
2018-11-22T19:39:18.407Z,97.73
2018-11-22T19:44:50.833Z,98.90
2018-11-22T19:47:40.438Z,98.69
2018-11-22T19:50:23.889Z,98.71
2018-11-22T19:56:06.008Z,98.47
2018-11-22T19:58:55.368Z,97.63
2018-11-22T20:01:44.432Z,97.47
2018-11-22T20:04:33.521Z,97.86
2018-11-22T20:07:22.590Z,97.83
2018-11-22T20:10:04.638Z,97.93
2018-11-22T20:12:53.710Z,98.00
2018-11-22T20:15:36.732Z,97.89
2018-11-22T20:18:25.799Z,98.10
2018-11-22T20:21:07.960Z,98.40
2018-11-22T20:23:57.137Z,98.22
2018-11-22T20:26:39.349Z,97.68
2018-11-22T20:29:28.767Z,97.63
2018-11-22T20:32:10.710Z,97.70
2018-11-22T20:40:31.634Z,97.78
2018-11-22T20:43:14.129Z,97.02
2018-11-22T20:46:22.167Z,97.02
2018-11-22T20:49:04.285Z,96.88
2018-11-22T20:51:53.359Z,97.25
2018-11-22T20:54:23.122Z,97.29
2018-11-22T20:57:12.235Z,97.40
2018-11-22T20:59:54.444Z,97.28
2018-11-22T21:02:43.535Z,97.64
2018-11-22T21:05:32.769Z,97.56
2018-11-22T21:08:14.641Z,97.30
2018-11-22T21:11:03.773Z,97.41
2018-11-22T21:13:52.953Z,97.44
2018-11-22T21:16:42.134Z,97.90
2018-11-22T21:19:31.289Z,97.83
2018-11-22T21:22:20.603Z,97.65
2018-11-22T21:25:12.015Z,97.10
2018-11-22T21:28:01.225Z,96.12
2018-11-22T21:30:50.358Z,96.72
2018-11-22T21:33:39.910Z,96.75
2018-11-22T21:36:29.683Z,96.70
2018-11-22T21:39:18.831Z,96.55
2018-11-22T21:42:07.973Z,96.34
2018-11-22T21:44:50.094Z,96.25
2018-11-22T21:47:39.289Z,96.30
2018-11-22T21:50:29.003Z,96.49
2018-11-22T21:53:18.328Z,96.36
2018-11-22T21:56:07.527Z,96.86
2018-11-22T21:58:56.769Z,97.34
2018-11-22T22:01:45.929Z,97.24
2018-11-22T22:04:35.107Z,97.47
2018-11-22T22:07:24.256Z,97.53
2018-11-22T22:10:13.482Z,97.59
2018-11-22T22:13:02.664Z,97.99
2018-11-22T22:15:51.865Z,98.02
2018-11-22T22:21:25.334Z,97.40
2018-11-22T22:24:14.448Z,97.51
2018-11-22T22:26:56.627Z,97.66
2018-11-22T22:29:45.694Z,97.34
2018-11-22T22:32:27.612Z,96.71
2018-11-22T22:35:16.726Z,96.09
2018-11-22T22:37:59.671Z,95.53
2018-11-22T22:40:43.167Z,95.83
2018-11-22T22:48:54.084Z,98.03
2018-11-22T22:51:43.253Z,98.52
2018-11-22T22:54:32.424Z,98.84
2018-11-22T22:57:21.692Z,98.52
2018-11-22T23:03:27.997Z,98.12
2018-11-22T23:06:17.266Z,97.50
2018-11-22T23:12:17.020Z,95.60
2018-11-22T23:14:59.095Z,96.33
2018-11-22T23:17:49.721Z,97.13
2018-11-22T23:23:31.556Z,98.74
2018-11-22T23:29:26.660Z,99.17
2018-11-22T23:32:10.854Z,99.54
2018-11-22T23:35:00.309Z,100.00
2018-11-22T23:40:34.572Z,100.00
2018-11-22T23:43:24.130Z,100.00
2018-11-22T23:46:10.654Z,100.00
2018-11-22T23:51:56.506Z,100.00
2018-11-22T23:54:45.669Z,100.00
2018-11-22T23:57:35.080Z,100.00
